This is the latest recevied weather packets stored in our database for station/object W1BKW. If no packets are shown the sender has not sent any weather packets the latest 10 day(s).
| Time | Temp. | Humidity | Pressure | Rain* | Wind** | Luminosity | Snow |
|---|---|---|---|---|---|---|---|
| 1777951922 | 8.33° C | 90% | 1005.3 hPa | 0 mm | - | 0 W/m² | - |
| 1777951018 | 8.33° C | 90% | 1005.3 hPa | 0 mm | - | 0 W/m² | - |
| 1777950119 | 8.89° C | 89% | 1005.3 hPa | 0 mm | - | 0 W/m² | - |
| 1777949217 | 8.89° C | 88% | 1005.6 hPa | 0 mm | - | 0 W/m² | - |
| 1777948314 | 9.44° C | 88% | 1005.5 hPa | 0 mm | - | 0 W/m² | - |
| 1777947411 | 10° C | 91% | 1005.6 hPa | 0 mm | - | 0 W/m² | - |
| 1777946511 | 10° C | 93% | 1005.7 hPa | 0 mm | - | 0 W/m² | - |
| 1777945608 | 10° C | 94% | 1005.4 hPa | 0 mm | - | 0 W/m² | - |
| 1777944705 | 10.56° C | 93% | 1005.4 hPa | 0 mm | - | 0 W/m² | - |
| 1777943801 | 10.56° C | 91% | 1005.2 hPa | 0 mm | - | 0 W/m² | - |
| 1777942896 | 10.56° C | 88% | 1005.1 hPa | 0 mm | - | 0 W/m² | - |
| 1777941992 | 10.56° C | 90% | 1005 hPa | 0 mm | - | 0 W/m² | - |
| 1777941090 | 11.67° C | 88% | 1004.9 hPa | 0 mm | - | 0 W/m² | - |
| 1777940186 | 11.67° C | 84% | 1004.4 hPa | 0 mm | - | 0 W/m² | - |
| 1777939285 | 12.22° C | 88% | 1004.3 hPa | 0 mm | - | 0 W/m² | - |
| 1777938380 | 13.33° C | 76% | 1004.2 hPa | 0 mm | - | 1 W/m² | - |
| 1777937481 | 13.89° C | 76% | 1003.6 hPa | 0 mm | - | 5 W/m² | - |
| 1777936578 | 15.56° C | 67% | 1003.6 hPa | 0 mm | - | 13 W/m² | - |
| 1777935675 | 18.89° C | 53% | 1003.4 hPa | 0 mm | - | 27 W/m² | - |
| 1777934772 | 18.33° C | 49% | 1003.2 hPa | 0 mm | - | 40 W/m² | - |
| 1777933867 | 18.33° C | 49% | 1003.1 hPa | 0 mm | - | 78 W/m² | - |
| 1777932965 | 17.22° C | 54% | 1003.5 hPa | 0 mm | - | 109 W/m² | - |
| 1777932061 | 17.78° C | 50% | 1003.4 hPa | 0 mm | - | 52 W/m² | - |
| 1777931157 | 17.78° C | 52% | 1003.5 hPa | 0 mm | - | 69 W/m² | - |
| 1777930253 | 16.67° C | 55% | 1003.6 hPa | 0 mm | - | 247 W/m² | - |
* Rain latest hour (hover to see other rain measurements)
** Current wind speed in m/s (hover to see current wind gust speed)